Time;durP1;ratioP1;P1;durP2;ratioP2;P2;SDS_P1;SDS_P2;PMS_P1;PMS_P2;Temp;Humidity;BMP_temperature;BMP_pressure;BME280_temperature;BME280_humidity;BME280_pressure;Samples;Min_cycle;Max_cycle;Signal;HPM_P1;HPM_P2
2023/08/21 00:00:34;;;;;;;0.20;0.20;;;;;;;16.88;100.00;100938.06;5025751;28;20068;-61
2023/08/21 00:02:59;;;;;;;0.20;0.20;;;;;;;16.97;100.00;100945.69;5025145;28;20478;-61
2023/08/21 00:05:25;;;;;;;0.40;0.40;;;;;;;16.97;100.00;100946.56;5025677;28;20040;-61
2023/08/21 00:07:50;;;;;;;0.20;0.20;;;;;;;16.98;100.00;100944.81;5025692;28;20032;-61
2023/08/21 00:10:16;;;;;;;0.20;0.20;;;;;;;16.98;100.00;100936.94;5025497;28;20075;-61
2023/08/21 00:12:42;;;;;;;0.20;0.20;;;;;;;16.94;100.00;100945.75;5025225;28;20038;-61
2023/08/21 00:15:09;;;;;;;1.27;1.27;;;;;;;16.91;100.00;100948.47;5025501;28;20025;-60
2023/08/21 00:17:35;;;;;;;0.38;0.38;;;;;;;16.87;100.00;100949.47;5025472;28;20029;-60
2023/08/21 00:20:01;;;;;;;0.50;0.50;;;;;;;16.79;100.00;100947.88;5024923;28;20026;-61
2023/08/21 00:22:27;;;;;;;0.20;0.20;;;;;;;16.77;100.00;100947.09;5025680;28;20026;-60
2023/08/21 00:24:52;;;;;;;0.20;0.20;;;;;;;16.76;100.00;100952.38;5025473;28;20032;-60
2023/08/21 00:27:18;;;;;;;0.40;0.40;;;;;;;16.74;100.00;100947.16;5025374;28;20029;-61
2023/08/21 00:29:43;;;;;;;0.95;0.75;;;;;;;16.73;100.00;100948.91;5025318;28;20028;-61
2023/08/21 00:32:08;;;;;;;0.30;0.30;;;;;;;16.72;100.00;100948.97;5025356;28;20302;-61
2023/08/21 00:34:34;;;;;;;1.25;0.90;;;;;;;16.70;100.00;100949.00;5025363;28;20085;-60
2023/08/21 00:36:59;;;;;;;0.20;0.20;;;;;;;16.68;100.00;100948.16;5025290;28;20110;-60
2023/08/21 00:39:25;;;;;;;0.20;0.20;;;;;;;16.60;100.00;100948.38;5025284;28;20117;-61
2023/08/21 00:41:50;;;;;;;0.20;0.20;;;;;;;16.56;100.00;100951.97;5025350;28;20025;-60
2023/08/21 00:44:16;;;;;;;0.20;0.20;;;;;;;16.52;100.00;100958.16;5025466;28;20030;-60
2023/08/21 00:46:41;;;;;;;0.28;0.28;;;;;;;16.53;100.00;100957.28;5025226;28;20061;-61
2023/08/21 00:49:06;;;;;;;0.25;0.25;;;;;;;16.54;100.00;100959.00;5025163;28;20458;-61
2023/08/21 00:51:32;;;;;;;0.20;0.20;;;;;;;16.50;100.00;100957.38;5024734;28;20033;-61
2023/08/21 00:53:58;;;;;;;0.20;0.20;;;;;;;16.51;100.00;100952.97;5025295;28;20025;-61
2023/08/21 00:56:24;;;;;;;0.20;0.20;;;;;;;16.47;100.00;100957.41;5025039;28;20049;-60
2023/08/21 00:58:49;;;;;;;0.20;0.20;;;;;;;16.41;100.00;100961.06;5025185;28;20055;-61
2023/08/21 01:01:18;;;;;;;1.42;1.33;;;;;;;16.37;100.00;100955.94;5025238;28;20099;-60
2023/08/21 01:03:44;;;;;;;0.20;0.20;;;;;;;16.35;100.00;100948.09;5024909;28;20018;-61
2023/08/21 01:06:09;;;;;;;0.52;0.52;;;;;;;16.32;100.00;100949.06;5024487;28;20473;-61
2023/08/21 01:08:49;;;;;;;0.20;0.20;;;;;;;16.26;100.00;100951.81;5024900;28;20041;-61
2023/08/21 01:11:21;;;;;;;0.65;0.65;;;;;;;16.26;100.00;100953.56;5025032;28;20026;-61
2023/08/21 01:14:05;;;;;;;0.30;0.30;;;;;;;16.18;100.00;100953.75;5024801;28;20057;-61
2023/08/21 01:16:32;;;;;;;0.20;0.20;;;;;;;16.12;100.00;100949.50;5024707;28;20033;-60
2023/08/21 01:19:00;;;;;;;11.40;2.20;;;;;;;16.06;100.00;100947.88;5025107;28;20028;-60
2023/08/21 01:21:26;;;;;;;0.20;0.20;;;;;;;16.00;100.00;100949.78;5025103;28;20033;-60
2023/08/21 01:23:52;;;;;;;0.20;0.20;;;;;;;15.97;100.00;100945.44;5024897;28;20528;-60
2023/08/21 01:26:18;;;;;;;0.55;0.55;;;;;;;15.90;100.00;100946.47;5024466;28;20026;-61
2023/08/21 01:28:44;;;;;;;0.77;0.77;;;;;;;15.79;100.00;100939.72;5024729;28;20494;-61
2023/08/21 01:31:14;;;;;;;0.20;0.20;;;;;;;15.81;100.00;100945.78;5027123;28;20022;-60
2023/08/21 01:33:53;;;;;;;0.30;0.30;;;;;;;15.70;100.00;100929.47;5028433;28;20057;-61
2023/08/21 01:36:20;;;;;;;0.20;0.20;;;;;;;15.61;100.00;100925.25;5028503;28;20032;-60
2023/08/21 01:38:45;;;;;;;0.43;0.43;;;;;;;15.61;100.00;100933.97;5028438;28;20048;-60
2023/08/21 01:41:10;;;;;;;0.25;0.25;;;;;;;15.56;100.00;100927.97;5028351;28;20021;-60
2023/08/21 01:43:36;;;;;;;0.30;0.30;;;;;;;15.58;100.00;100939.28;5028376;28;20521;-61
2023/08/21 01:46:03;;;;;;;0.20;0.20;;;;;;;15.54;100.00;100942.00;5028286;28;20081;-61
2023/08/21 01:48:28;;;;;;;0.35;0.35;;;;;;;15.52;100.00;100935.94;5028302;28;20033;-61
2023/08/21 01:50:54;;;;;;;0.45;0.45;;;;;;;15.48;100.00;100937.72;5028255;28;20021;-60
2023/08/21 01:53:19;;;;;;;0.20;0.20;;;;;;;15.46;100.00;100936.94;5028105;28;20029;-61
2023/08/21 01:55:45;;;;;;;0.35;0.35;;;;;;;15.34;100.00;100931.03;5027957;28;20133;-61
2023/08/21 01:58:10;;;;;;;0.20;0.20;;;;;;;15.43;100.00;100937.84;5028054;28;20018;-61
2023/08/21 02:00:35;;;;;;;0.20;0.20;;;;;;;15.41;100.00;100938.75;5028161;28;20030;-61
2023/08/21 02:03:01;;;;;;;0.40;0.40;;;;;;;15.39;100.00;100940.53;5027996;28;20022;-60
2023/08/21 02:05:26;;;;;;;0.20;0.20;;;;;;;15.30;100.00;100934.63;5027792;28;20032;-60
2023/08/21 02:07:52;;;;;;;2.83;1.48;;;;;;;15.31;100.00;100940.69;5027995;28;20026;-61
2023/08/21 02:10:17;;;;;;;0.20;0.20;;;;;;;15.32;100.00;100945.06;5027866;28;20108;-61
2023/08/21 02:12:43;;;;;;;0.20;0.20;;;;;;;15.32;100.00;100943.28;5027655;28;20486;-60
2023/08/21 02:15:10;;;;;;;0.30;0.30;;;;;;;15.34;100.00;100944.13;5027657;28;20033;-61
2023/08/21 02:17:35;;;;;;;0.20;0.20;;;;;;;15.37;100.00;100943.19;5027709;28;20029;-61
2023/08/21 02:20:01;;;;;;;0.20;0.20;;;;;;;15.38;100.00;100939.69;5028025;28;20033;-61
2023/08/21 02:22:26;;;;;;;0.20;0.20;;;;;;;15.43;100.00;100942.22;5027622;28;20561;-61
2023/08/21 02:24:51;;;;;;;0.20;0.20;;;;;;;15.45;100.00;100943.91;5027462;28;20018;-61
2023/08/21 02:27:17;;;;;;;0.80;0.80;;;;;;;15.48;100.00;100937.72;5027567;28;20083;-61
2023/08/21 02:29:42;;;;;;;0.20;0.20;;;;;;;15.49;100.00;100942.09;5027558;28;20044;-60
2023/08/21 02:32:08;;;;;;;0.20;0.20;;;;;;;15.47;100.00;100939.50;5027381;28;20028;-60
2023/08/21 02:34:33;;;;;;;0.50;0.50;;;;;;;15.45;100.00;100936.06;5027330;28;20032;-60
2023/08/21 02:36:58;;;;;;;0.28;0.28;;;;;;;15.46;100.00;100934.31;5027424;28;20079;-61
2023/08/21 02:39:24;;;;;;;0.20;0.20;;;;;;;15.44;100.00;100933.47;5027375;28;20052;-61
2023/08/21 02:41:49;;;;;;;0.20;0.20;;;;;;;15.41;100.00;100925.69;5026750;28;20080;-60
2023/08/21 02:44:14;;;;;;;0.20;0.20;;;;;;;15.40;100.00;100931.81;5027354;28;20359;-60
2023/08/21 02:46:40;;;;;;;0.20;0.20;;;;;;;15.38;100.00;100933.59;5027097;28;20060;-60
2023/08/21 02:49:05;;;;;;;0.20;0.20;;;;;;;15.35;100.00;100930.16;5027134;28;20053;-60
2023/08/21 02:51:31;;;;;;;0.20;0.20;;;;;;;15.42;100.00;100940.47;5026921;28;20041;-60
2023/08/21 02:53:56;;;;;;;0.20;0.20;;;;;;;15.43;100.00;100937.84;5027021;28;20044;-61
2023/08/21 02:56:22;;;;;;;0.20;0.20;;;;;;;15.51;100.00;100947.28;5026897;28;20072;-60
2023/08/21 02:58:47;;;;;;;37.45;1.85;;;;;;;15.55;100.00;100935.88;5026956;28;20030;-61
2023/08/21 03:01:12;;;;;;;0.30;0.30;;;;;;;15.64;100.00;100950.53;5027253;28;20045;-61
2023/08/21 03:03:38;;;;;;;0.28;0.28;;;;;;;15.65;100.00;100949.63;5027044;28;20022;-61
2023/08/21 03:06:03;;;;;;;0.20;0.20;;;;;;;15.73;100.00;100958.19;5026995;28;20348;-61
2023/08/21 03:08:29;;;;;;;0.20;0.20;;;;;;;15.70;100.00;100942.53;5026905;28;20053;-61
2023/08/21 03:10:54;;;;;;;0.20;0.20;;;;;;;15.79;100.00;100960.66;5026492;28;20022;-61
2023/08/21 03:13:19;;;;;;;0.20;0.20;;;;;;;15.77;100.00;100959.00;5026453;28;20064;-60
2023/08/21 03:15:45;;;;;;;0.20;0.20;;;;;;;15.78;100.00;100953.72;5026801;28;20049;-61
2023/08/21 03:18:10;;;;;;;0.20;0.20;;;;;;;15.82;100.00;100963.22;5026678;28;20089;-60
2023/08/21 03:20:36;;;;;;;0.20;0.20;;;;;;;15.84;100.00;100947.47;5026440;28;20048;-60
2023/08/21 03:23:01;;;;;;;0.20;0.20;;;;;;;15.83;100.00;100951.84;5026543;28;20025;-60
2023/08/21 03:25:27;;;;;;;0.20;0.20;;;;;;;15.85;100.00;100954.41;5026275;28;20018;-59
2023/08/21 03:27:53;;;;;;;0.20;0.20;;;;;;;15.85;100.00;100957.03;5026065;28;20078;-60
2023/08/21 03:30:18;;;;;;;0.30;0.30;;;;;;;15.82;100.00;100939.66;5026460;28;20049;-61
2023/08/21 03:32:44;;;;;;;0.20;0.20;;;;;;;15.93;100.00;100949.00;5026333;28;20243;-60
2023/08/21 03:35:09;;;;;;;0.68;0.68;;;;;;;15.90;100.00;100949.09;5026447;28;20030;-60
2023/08/21 03:37:35;;;;;;;0.20;0.20;;;;;;;15.88;100.00;100933.41;5026223;28;20447;-61
2023/08/21 03:40:02;;;;;;;1.00;1.00;;;;;;;15.97;100.00;100933.22;5025786;28;20080;-61
2023/08/21 03:42:28;;;;;;;0.20;0.20;;;;;;;15.96;100.00;100930.63;5026204;28;20025;-60
2023/08/21 03:44:53;;;;;;;0.20;0.20;;;;;;;15.94;100.00;100932.44;5026212;28;20053;-61
2023/08/21 03:47:19;;;;;;;0.30;0.30;;;;;;;15.93;100.00;100933.31;5026193;28;20544;-60
2023/08/21 03:49:44;;;;;;;0.20;0.20;;;;;;;15.93;100.00;100936.78;5026134;28;20028;-61
2023/08/21 03:52:09;;;;;;;0.20;0.20;;;;;;;15.96;100.00;100925.38;5025642;28;20026;-62
2023/08/21 03:54:35;;;;;;;0.20;0.20;;;;;;;15.99;100.00;100930.56;5025166;28;20057;-60
2023/08/21 03:57:00;;;;;;;0.20;0.20;;;;;;;16.00;100.00;100927.09;5025948;28;20025;-61
2023/08/21 03:59:27;;;;;;;0.20;0.20;;;;;;;16.01;100.00;100931.41;5025933;28;20059;-60
2023/08/21 04:01:53;;;;;;;0.60;0.60;;;;;;;16.00;100.00;100934.06;5025752;28;20026;-60
2023/08/21 04:04:18;;;;;;;1.17;1.17;;;;;;;15.99;100.00;100927.97;5025804;28;20049;-60
2023/08/21 04:06:44;;;;;;;0.20;0.20;;;;;;;16.00;100.00;100932.31;5026043;28;20022;-60
2023/08/21 04:09:10;;;;;;;0.28;0.28;;;;;;;16.06;100.00;100936.53;5025925;28;20034;-61
2023/08/21 04:11:36;;;;;;;0.20;0.20;;;;;;;16.00;100.00;100927.09;5025758;28;20032;-60
2023/08/21 04:14:02;;;;;;;0.38;0.38;;;;;;;16.03;100.00;100927.00;5025807;28;20078;-60
2023/08/21 04:16:28;;;;;;;0.30;0.30;;;;;;;16.04;99.53;100931.34;5025903;28;20038;-61
2023/08/21 04:18:54;;;;;;;0.20;0.20;;;;;;;16.06;100.00;100926.94;5026106;28;20104;-60
2023/08/21 04:21:19;;;;;;;0.20;0.20;;;;;;;16.04;99.48;100923.47;5026037;28;20025;-60
2023/08/21 04:23:47;;;;;;;0.20;0.20;;;;;;;16.04;99.02;100923.47;5025812;28;20018;-60
2023/08/21 04:26:13;;;;;;;0.20;0.20;;;;;;;16.07;99.36;100926.03;5025523;28;20118;-61
2023/08/21 04:28:38;;;;;;;0.20;0.20;;;;;;;16.07;99.03;100931.28;5025622;28;20077;-61
2023/08/21 04:31:07;;;;;;;0.20;0.20;;;;;;;15.95;98.68;100905.34;5025646;28;20045;-61
2023/08/21 04:33:33;;;;;;;0.95;0.95;;;;;;;16.07;98.34;100922.56;5025491;28;20545;-61
2023/08/21 04:35:59;;;;;;;0.28;0.28;;;;;;;16.04;98.57;100923.47;5025735;28;20060;-61
2023/08/21 04:38:25;;;;;;;0.43;0.43;;;;;;;16.09;98.29;100913.78;5025488;28;20377;-61
2023/08/21 04:40:50;;;;;;;0.20;0.20;;;;;;;16.12;98.30;100925.09;5025508;28;20022;-60
2023/08/21 04:43:16;;;;;;;0.30;0.30;;;;;;;16.13;98.56;100924.16;5025563;28;20022;-60
2023/08/21 04:45:55;;;;;;;0.20;0.20;;;;;;;16.10;97.38;100922.50;5025618;28;20017;-61
2023/08/21 04:48:21;;;;;;;0.68;0.68;;;;;;;16.10;97.19;100922.50;5025643;28;20037;-61
2023/08/21 04:50:46;;;;;;;0.20;0.20;;;;;;;16.12;97.46;100917.22;5025491;28;20362;-60
2023/08/21 04:53:12;;;;;;;0.20;0.20;;;;;;;16.17;97.32;100923.19;5025336;28;20032;-60
2023/08/21 04:55:40;;;;;;;0.20;0.20;;;;;;;16.12;97.01;100918.06;5025104;28;20060;-60
2023/08/21 04:58:07;;;;;;;0.30;0.30;;;;;;;16.18;97.25;100922.31;5025299;28;20099;-60
2023/08/21 05:00:33;;;;;;;0.77;0.77;;;;;;;16.16;96.75;100917.13;5025397;28;20053;-60
2023/08/21 05:02:58;;;;;;;0.20;0.20;;;;;;;16.22;97.11;100916.97;5025270;28;20033;-60
2023/08/21 05:05:23;;;;;;;0.30;0.30;;;;;;;16.24;97.15;100922.16;5026459;28;20048;-60
2023/08/21 05:07:49;;;;;;;0.40;0.40;;;;;;;16.22;96.39;100919.59;5029277;28;20037;-60
2023/08/21 05:10:14;;;;;;;0.20;0.20;;;;;;;16.22;96.35;100921.34;5029144;28;20049;-60
2023/08/21 05:12:40;;;;;;;0.70;0.40;;;;;;;16.21;95.53;100919.63;5027836;28;20038;-61
2023/08/21 05:15:05;;;;;;;0.20;0.20;;;;;;;16.27;95.91;100923.84;5029185;28;20029;-60
2023/08/21 05:17:31;;;;;;;0.20;0.20;;;;;;;16.27;96.41;100924.72;5029019;28;20029;-60
2023/08/21 05:19:56;;;;;;;0.20;0.20;;;;;;;16.17;96.08;100913.59;5029208;28;20021;-60
2023/08/21 05:22:22;;;;;;;0.20;0.20;;;;;;;16.31;95.97;100923.72;5029054;28;20021;-60
2023/08/21 05:24:47;;;;;;;1.95;1.85;;;;;;;16.31;95.86;100931.59;5028978;28;20057;-60
2023/08/21 05:27:13;;;;;;;1.85;0.70;;;;;;;16.34;95.90;100925.44;5028911;28;20022;-60
2023/08/21 05:29:38;;;;;;;0.20;0.20;;;;;;;16.39;95.41;100927.94;5028965;28;20060;-61
2023/08/21 05:32:04;;;;;;;0.20;0.20;;;;;;;16.41;94.76;100927.00;5028950;28;20032;-59
2023/08/21 05:34:30;;;;;;;0.35;0.35;;;;;;;16.48;94.52;100919.84;5028781;28;20115;-59
2023/08/21 05:36:55;;;;;;;0.20;0.20;;;;;;;16.55;94.69;100923.19;5028619;28;20220;-60
2023/08/21 05:39:21;;;;;;;0.20;0.20;;;;;;;16.54;94.09;100908.34;5028608;28;20030;-60
2023/08/21 05:41:46;;;;;;;0.40;0.40;;;;;;;16.60;94.06;100919.53;5028587;28;20026;-61
2023/08/21 05:44:11;;;;;;;0.20;0.20;;;;;;;16.65;93.55;100918.53;5028559;28;20052;-62
2023/08/21 05:46:38;;;;;;;0.20;0.20;;;;;;;16.64;92.83;100916.81;5028514;28;20037;-59
2023/08/21 05:49:03;;;;;;;0.20;0.20;;;;;;;16.65;93.11;100929.03;5028467;28;20036;-61
2023/08/21 05:51:29;;;;;;;0.20;0.20;;;;;;;16.67;92.73;100924.63;5028459;28;20025;-61
2023/08/21 05:53:54;;;;;;;0.20;0.20;;;;;;;16.69;92.87;100926.28;5028230;28;20402;-61
2023/08/21 05:56:20;;;;;;;0.60;0.60;;;;;;;16.75;92.72;100933.16;5028420;28;20147;-61
2023/08/21 05:58:45;;;;;;;0.35;0.35;;;;;;;16.82;93.22;100937.31;5028467;28;20026;-61
2023/08/21 06:01:11;;;;;;;0.20;0.20;;;;;;;16.83;92.95;100935.56;5028561;28;20026;-61
2023/08/21 06:03:37;;;;;;;0.30;0.30;;;;;;;16.88;92.31;100935.44;5028418;28;20080;-61
2023/08/21 06:06:03;;;;;;;0.20;0.20;;;;;;;16.86;92.36;100919.75;5028365;28;20026;-61
2023/08/21 06:08:28;;;;;;;0.38;0.38;;;;;;;16.97;91.34;100929.94;5028350;28;20454;-62
2023/08/21 06:10:53;;;;;;;0.20;0.20;;;;;;;17.05;91.60;100930.59;5027904;28;20021;-60
2023/08/21 06:13:19;;;;;;;0.20;0.20;;;;;;;17.11;91.61;100926.13;5027966;28;20042;-62
2023/08/21 06:15:47;;;;;;;0.32;0.32;;;;;;;17.14;91.24;100936.53;5028204;28;20490;-62
2023/08/21 06:18:14;;;;;;;0.20;0.20;;;;;;;17.13;90.54;100935.66;5027251;28;20029;-61
2023/08/21 06:20:42;;;;;;;0.20;0.20;;;;;;;17.12;90.58;100939.22;5028038;28;20409;-61
2023/08/21 06:23:08;;;;;;;0.50;0.50;;;;;;;17.11;90.30;100939.25;5027931;28;20022;-61
2023/08/21 06:25:33;;;;;;;0.20;0.20;;;;;;;17.11;90.09;100949.75;5027767;28;20089;-60
2023/08/21 06:27:58;;;;;;;0.30;0.30;;;;;;;17.02;89.61;100932.44;5027859;28;20393;-60
2023/08/21 06:30:24;;;;;;;0.20;0.20;;;;;;;17.08;89.60;100940.19;5027822;28;20032;-60
2023/08/21 06:32:49;;;;;;;0.20;0.20;;;;;;;17.05;89.12;100932.34;5027916;28;20215;-60
2023/08/21 06:35:15;;;;;;;0.40;0.40;;;;;;;17.09;88.87;100942.75;5027793;28;20022;-61
2023/08/21 06:37:40;;;;;;;0.20;0.20;;;;;;;17.12;88.17;100933.97;5027542;28;20026;-61
2023/08/21 06:40:06;;;;;;;0.45;0.45;;;;;;;17.12;88.88;100943.59;5027538;28;20044;-60
2023/08/21 06:42:32;;;;;;;0.20;0.20;;;;;;;17.17;87.85;100946.94;5027930;28;20017;-60
2023/08/21 06:44:57;;;;;;;0.20;0.20;;;;;;;17.17;87.25;100953.03;5027419;28;20390;-61
2023/08/21 06:47:23;;;;;;;0.20;0.20;;;;;;;17.15;86.87;100949.63;5027645;28;20025;-61
2023/08/21 06:49:49;;;;;;;0.20;0.20;;;;;;;17.19;87.10;100953.88;5027610;28;20049;-61
2023/08/21 06:52:14;;;;;;;0.20;0.20;;;;;;;17.26;86.29;100953.69;5027388;28;20091;-60
2023/08/21 06:54:39;;;;;;;0.20;0.20;;;;;;;17.30;85.98;100948.31;5027541;28;20044;-61
2023/08/21 06:57:05;;;;;;;0.20;0.20;;;;;;;17.43;86.60;100963.72;5027278;28;20052;-60
2023/08/21 06:59:30;;;;;;;11.52;4.03;;;;;;;17.46;86.08;100959.25;5027338;28;20025;-60
2023/08/21 07:01:55;;;;;;;0.20;0.20;;;;;;;17.48;84.88;100951.31;5027230;28;20385;-61
2023/08/21 07:04:21;;;;;;;0.20;0.20;;;;;;;17.46;83.19;100953.13;5027132;28;20029;-61
2023/08/21 07:06:46;;;;;;;0.20;0.20;;;;;;;17.46;82.56;100953.13;5027297;28;20025;-61
2023/08/21 07:09:12;;;;;;;0.20;0.20;;;;;;;17.48;82.93;100955.72;5025872;28;20064;-62
2023/08/21 07:11:37;;;;;;;0.20;0.20;;;;;;;17.50;82.82;100951.28;5026993;28;20026;-61
2023/08/21 07:14:03;;;;;;;0.20;0.20;;;;;;;17.49;82.71;100953.06;5027066;28;20061;-62
2023/08/21 07:16:28;;;;;;;0.20;0.20;;;;;;;17.46;81.63;100947.88;5027052;28;20048;-61
2023/08/21 07:18:54;;;;;;;0.20;0.20;;;;;;;17.45;80.94;100956.66;5026938;28;20041;-61
2023/08/21 07:21:20;;;;;;;0.20;0.20;;;;;;;17.41;80.88;100958.50;5026952;28;20273;-62
2023/08/21 07:23:45;;;;;;;0.20;0.20;;;;;;;17.44;80.45;100957.56;5027059;28;20041;-61
2023/08/21 07:26:11;;;;;;;0.20;0.20;;;;;;;17.37;79.80;100961.25;5026673;28;20049;-61
2023/08/21 07:28:36;;;;;;;0.20;0.20;;;;;;;17.44;79.84;100961.03;5026764;28;20022;-61
2023/08/21 07:31:02;;;;;;;0.20;0.20;;;;;;;17.48;79.31;100959.19;5026793;28;20030;-61
2023/08/21 07:33:27;;;;;;;0.73;0.73;;;;;;;17.52;78.03;100959.97;5041898;28;20029;-61
2023/08/21 07:36:04;;;;;;;0.52;0.52;;;;;;;17.55;78.05;100952.88;5026737;28;20025;-61
2023/08/21 07:38:29;;;;;;;1.50;1.33;;;;;;;17.62;77.94;100963.19;5026924;28;20109;-61
2023/08/21 07:41:13;;;;;;;0.20;0.20;;;;;;;17.61;76.94;100950.97;5026477;28;20101;-62
2023/08/21 07:43:43;;;;;;;0.20;0.20;;;;;;;17.69;77.52;100962.09;5026499;28;20021;-61
2023/08/21 07:46:15;;;;;;;0.28;0.28;;;;;;;17.68;77.91;100963.84;5041530;28;20029;-61
2023/08/21 07:48:42;;;;;;;0.20;0.20;;;;;;;17.66;78.09;100964.81;5026584;28;20033;-61
2023/08/21 07:51:08;;;;;;;0.20;0.20;;;;;;;17.66;77.88;100965.69;5026454;28;20026;-61
2023/08/21 07:53:34;;;;;;;0.50;0.43;;;;;;;17.68;78.33;100960.41;5026385;28;20057;-61
2023/08/21 07:56:00;;;;;;;0.95;0.95;;;;;;;17.65;78.06;100965.75;5026351;28;20026;-61
2023/08/21 07:58:25;;;;;;;0.20;0.20;;;;;;;17.75;78.61;100963.72;5026210;28;20024;-61
2023/08/21 08:00:51;;;;;;;0.20;0.20;;;;;;;17.89;78.94;100961.50;5026268;28;20026;-61
2023/08/21 08:03:16;;;;;;;0.20;0.20;;;;;;;18.08;78.76;100971.47;5026167;28;20098;-61
2023/08/21 08:05:42;;;;;;;0.95;0.95;;;;;;;18.23;77.87;100962.25;5026226;28;20022;-61
2023/08/21 08:08:08;;;;;;;0.20;0.20;;;;;;;18.13;76.17;100959.06;5026096;28;20053;-60
2023/08/21 08:10:37;;;;;;;0.20;0.20;;;;;;;17.99;76.10;100953.38;5025942;28;20026;-61
2023/08/21 08:13:03;;;;;;;0.20;0.20;;;;;;;18.03;76.93;100963.72;5025756;28;20065;-61
2023/08/21 08:15:28;;;;;;;0.20;0.20;;;;;;;18.27;77.64;100960.41;5026212;28;20025;-61
2023/08/21 08:17:54;;;;;;;0.20;0.20;;;;;;;18.46;76.65;100973.81;5025940;28;20504;-61
2023/08/21 08:20:20;;;;;;;0.20;0.20;;;;;;;18.57;76.70;100963.81;5026089;28;20030;-61
2023/08/21 08:22:46;;;;;;;0.20;0.20;;;;;;;18.54;75.17;100968.28;5025967;28;20044;-61
2023/08/21 08:25:11;;;;;;;0.20;0.20;;;;;;;18.47;75.81;100967.63;5025861;28;20097;-60
2023/08/21 08:27:37;;;;;;;2.15;1.30;;;;;;;18.45;76.42;100964.22;5025824;28;20052;-60
2023/08/21 08:30:03;;;;;;;0.20;0.20;;;;;;;18.42;76.41;100966.91;5024540;28;20045;-62
2023/08/21 08:32:29;;;;;;;0.20;0.20;;;;;;;18.28;76.01;100972.63;5025790;28;20034;-60
2023/08/21 08:34:55;;;;;;;0.20;0.20;;;;;;;18.23;76.24;100982.44;5025744;28;20030;-61
2023/08/21 08:37:20;;;;;;;0.20;0.20;;;;;;;18.17;76.38;100975.59;5025725;28;20033;-61
2023/08/21 08:39:46;;;;;;;0.20;0.20;;;;;;;18.17;76.75;100988.72;5025113;28;20049;-61
2023/08/21 08:42:13;;;;;;;0.20;0.20;;;;;;;18.20;76.86;100968.47;5025582;28;20044;-61
2023/08/21 08:44:41;;;;;;;0.20;0.20;;;;;;;18.28;76.55;100984.00;5025688;28;20029;-61
2023/08/21 08:47:07;;;;;;;0.20;0.20;;;;;;;18.32;76.49;100979.53;5025435;28;20030;-61
2023/08/21 08:49:33;;;;;;;0.20;0.20;;;;;;;18.41;77.13;100983.59;5025617;28;20077;-60
2023/08/21 08:51:59;;;;;;;12.07;3.47;;;;;;;18.44;76.49;100979.13;5025362;28;20132;-61
2023/08/21 08:54:26;;;;;;;0.20;0.20;;;;;;;18.53;76.47;100982.38;5025515;28;20065;-61
2023/08/21 08:56:51;;;;;;;0.20;0.20;;;;;;;18.47;75.49;100978.16;5040446;28;20400;-60
2023/08/21 08:59:17;;;;;;;0.20;0.20;;;;;;;18.56;74.81;100980.47;5025330;28;20026;-60
2023/08/21 09:01:43;;;;;;;0.20;0.20;;;;;;;18.62;74.93;100991.69;5025559;28;20105;-60
2023/08/21 09:04:09;;;;;;;0.20;0.20;;;;;;;18.60;75.19;100983.88;5025443;28;20084;-61
2023/08/21 09:06:36;;;;;;;0.20;0.20;;;;;;;18.80;74.70;100980.56;5025366;28;20060;-60
2023/08/21 09:09:02;;;;;;;0.20;0.20;;;;;;;19.22;73.96;100991.44;5025339;28;20030;-61
2023/08/21 09:11:27;;;;;;;0.88;0.88;;;;;;;19.51;72.18;100979.00;5025279;28;20120;-61
2023/08/21 09:13:55;;;;;;;0.47;0.47;;;;;;;19.69;71.26;100985.38;5025062;28;20109;-61
2023/08/21 09:16:22;;;;;;;0.20;0.20;;;;;;;19.74;72.09;100993.09;5025163;28;20607;-62
2023/08/21 09:18:56;;;;;;;0.20;0.20;;;;;;;19.68;72.20;100967.84;5025408;28;20056;-61
2023/08/21 09:21:23;;;;;;;0.20;0.20;;;;;;;19.77;71.78;100992.13;5025487;28;20026;-61
2023/08/21 09:23:56;;;;;;;0.55;0.55;;;;;;;19.76;71.86;100980.72;5025361;28;20029;-60
2023/08/21 09:26:23;;;;;;;0.20;0.20;;;;;;;19.98;70.17;100984.31;5025242;28;20544;-60
2023/08/21 09:28:50;;;;;;;0.20;0.20;;;;;;;20.16;70.06;100990.69;5025162;28;20022;-61
2023/08/21 09:31:16;;;;;;;0.20;0.20;;;;;;;20.52;69.88;100969.00;5024908;28;20026;-60
2023/08/21 09:33:42;;;;;;;0.20;0.20;;;;;;;20.71;68.61;100973.50;5024965;28;20438;-61
2023/08/21 09:36:09;;;;;;;0.20;0.20;;;;;;;20.64;67.50;100972.91;5040239;28;20061;-61
2023/08/21 09:38:37;;;;;;;0.20;0.20;;;;;;;20.49;67.26;100974.41;5040355;28;20040;-61
2023/08/21 09:41:03;;;;;;;0.20;0.20;;;;;;;20.60;67.32;100970.47;5025027;28;20034;-62
2023/08/21 09:43:28;;;;;;;0.20;0.20;;;;;;;20.81;67.04;100976.63;5024998;28;20026;-62
2023/08/21 09:45:57;;;;;;;0.57;0.57;;;;;;;21.24;66.67;100976.56;5025147;28;20045;-61
2023/08/21 09:48:26;;;;;;;0.20;0.20;;;;;;;21.56;64.88;100970.75;5025065;28;20025;-60
2023/08/21 09:50:52;;;;;;;1.13;1.08;;;;;;;21.71;64.41;100976.25;5025108;28;20071;-61
2023/08/21 09:53:17;;;;;;;0.15;0.15;;;;;;;21.96;62.48;100972.47;5027406;28;20368;-60
2023/08/21 09:55:43;;;;;;;0.20;0.20;;;;;;;21.99;62.53;100967.91;5028503;28;20022;-61
2023/08/21 09:58:09;;;;;;;0.10;0.10;;;;;;;21.74;61.58;100973.47;5028413;28;20037;-61
2023/08/21 10:00:38;;;;;;;0.10;0.10;;;;;;;21.34;61.14;100973.50;5028476;28;20462;-61
2023/08/21 10:03:07;;;;;;;0.13;0.13;;;;;;;21.08;61.84;100962.31;5028459;28;20038;-61
2023/08/21 10:05:35;;;;;;;0.20;0.20;;;;;;;21.06;62.80;100970.31;5028343;28;20022;-61
2023/08/21 10:08:04;;;;;;;0.10;0.10;;;;;;;21.05;63.36;100977.34;5028386;28;20030;-61
2023/08/21 10:10:32;;;;;;;1.05;1.05;;;;;;;21.28;64.10;100979.91;5028065;28;20022;-61
2023/08/21 10:12:58;;;;;;;0.20;0.20;;;;;;;21.65;63.85;100972.09;5028094;28;20042;-62
2023/08/21 10:15:24;;;;;;;0.20;0.20;;;;;;;21.75;63.04;100981.31;5028097;28;20048;-61
2023/08/21 10:17:49;;;;;;;0.20;0.20;;;;;;;21.82;61.94;100963.41;5028195;28;20367;-61
2023/08/21 10:20:22;;;;;;;0.10;0.10;;;;;;;21.74;60.67;100978.75;5028097;28;20032;-61
2023/08/21 10:22:56;;;;;;;0.20;0.20;;;;;;;21.53;60.43;100965.59;5028187;28;20026;-60
2023/08/21 10:25:27;;;;;;;0.10;0.10;;;;;;;21.65;62.53;100969.47;5027972;28;20273;-61
2023/08/21 10:27:55;;;;;;;0.20;0.20;;;;;;;22.24;60.59;100964.06;5027998;28;20030;-60
2023/08/21 10:30:26;;;;;;;0.20;0.20;;;;;;;22.54;60.64;100971.41;5028089;28;20034;-61
2023/08/21 10:32:53;;;;;;;0.30;0.30;;;;;;;22.95;58.39;100956.19;5027914;28;20081;-61
2023/08/21 10:35:24;;;;;;;0.10;0.10;;;;;;;22.78;58.72;100960.53;5027939;28;20036;-61
2023/08/21 10:38:13;;;;;;;0.20;0.20;;;;;;;22.53;57.38;100975.00;5027931;28;20060;-61
2023/08/21 10:41:01;;;;;;;0.20;0.20;;;;;;;22.39;59.33;100964.25;5027635;28;20037;-60
2023/08/21 10:43:45;;;;;;;0.73;0.73;;;;;;;22.45;58.70;100968.38;5027568;28;20022;-60
2023/08/21 10:46:11;;;;;;;0.10;0.10;;;;;;;22.32;57.28;100970.78;5027715;28;20050;-61
2023/08/21 10:48:37;;;;;;;0.50;0.50;;;;;;;22.24;58.69;100966.72;5027571;28;20026;-61
2023/08/21 10:51:05;;;;;;;0.20;0.20;;;;;;;22.98;58.37;100965.75;5027592;28;20049;-61
2023/08/21 10:53:31;;;;;;;0.20;0.20;;;;;;;23.21;57.96;100977.75;5027420;28;20033;-62
2023/08/21 10:55:57;;;;;;;0.40;0.40;;;;;;;23.18;56.96;100971.78;5027483;28;20021;-61
2023/08/21 10:58:23;;;;;;;0.10;0.10;;;;;;;23.00;57.05;100967.38;5027471;28;20429;-61
2023/08/21 11:01:00;;;;;;;1.20;1.00;;;;;;;22.92;56.88;100971.38;5027406;28;20022;-61
2023/08/21 11:03:26;;;;;;;0.40;0.40;;;;;;;22.98;57.75;100969.25;5026952;28;20088;-61
2023/08/21 11:06:08;;;;;;;0.20;0.20;;;;;;;23.26;57.00;100978.38;5027297;28;20062;-61
2023/08/21 11:08:35;;;;;;;0.32;0.32;;;;;;;23.63;57.01;100980.88;5027214;28;20087;-61
2023/08/21 11:11:02;;;;;;;0.20;0.20;;;;;;;24.43;54.84;100971.19;5026962;28;20026;-61
2023/08/21 11:13:28;;;;;;;0.10;0.10;;;;;;;24.85;52.40;100973.19;5026886;28;20038;-61
2023/08/21 11:16:04;;;;;;;0.20;0.20;;;;;;;25.20;50.90;100964.03;5027340;28;20022;-61
2023/08/21 11:18:31;;;;;;;0.20;0.20;;;;;;;25.42;49.79;100975.97;5027046;28;20034;-61